Time;durP1;ratioP1;P1;durP2;ratioP2;P2;SDS_P1;SDS_P2;PMS_P1;PMS_P2;Temp;Humidity;BMP_temperature;BMP_pressure;BME280_temperature;BME280_humidity;BME280_pressure;Samples;Min_cycle;Max_cycle;Signal;HPM_P1;HPM_P2
2022/10/22 00:00:18;;;;;;;10.70;9.70;;;16.20;99.90;;;;;;4991623;28;20466;-77
2022/10/22 00:02:45;;;;;;;10.00;9.10;;;16.20;99.90;;;;;;4991459;28;20478;-77
2022/10/22 00:05:12;;;;;;;10.37;9.47;;;16.20;99.90;;;;;;4992090;28;20466;-79
2022/10/22 00:07:40;;;;;;;11.10;9.60;;;16.20;99.90;;;;;;4985565;28;20482;-78
2022/10/22 00:10:09;;;;;;;8.70;7.87;;;16.10;99.90;;;;;;4991204;28;20481;-77
2022/10/22 00:12:36;;;;;;;10.27;9.37;;;16.10;99.90;;;;;;4991609;28;20549;-77
2022/10/22 00:15:06;;;;;;;9.90;9.10;;;16.10;99.90;;;;;;4992035;28;20465;-77
2022/10/22 00:17:37;;;;;;;8.73;7.83;;;16.10;99.90;;;;;;4988035;28;20562;-77
2022/10/22 00:20:05;;;;;;;10.67;9.43;;;16.10;99.90;;;;;;4992705;28;20492;-80
2022/10/22 00:22:34;;;;;;;10.93;9.93;;;16.10;99.90;;;;;;4991673;28;20472;-79
2022/10/22 00:25:01;;;;;;;11.00;10.00;;;16.10;99.90;;;;;;5011422;28;20489;-80
2022/10/22 00:27:28;;;;;;;11.20;10.17;;;16.10;99.90;;;;;;5012118;28;20523;-80
2022/10/22 00:29:55;;;;;;;10.67;9.60;;;16.10;99.90;;;;;;5011301;28;20464;-80
2022/10/22 00:32:22;;;;;;;10.70;9.60;;;16.20;99.90;;;;;;5002117;28;20481;-78
2022/10/22 00:34:50;;;;;;;9.83;8.93;;;16.20;99.90;;;;;;4996228;28;20494;-77
2022/10/22 00:37:17;;;;;;;10.33;9.37;;;16.20;99.90;;;;;;5015540;28;20496;-78
2022/10/22 00:39:44;;;;;;;10.57;9.60;;;16.20;99.90;;;;;;5014671;28;20509;-77
2022/10/22 00:42:16;;;;;;;9.93;8.97;;;16.20;99.90;;;;;;5014776;28;20565;-80
2022/10/22 00:45:08;;;;;;;8.47;7.67;;;16.20;99.90;;;;;;5014929;28;20468;-78
2022/10/22 00:47:39;;;;;;;9.37;8.47;;;16.20;99.90;;;;;;5010942;28;20496;-77
2022/10/22 00:50:16;;;;;;;9.77;8.87;;;16.20;99.90;;;;;;5013044;28;20493;-80
2022/10/22 00:52:43;;;;;;;9.93;9.03;;;16.20;99.90;;;;;;5016292;28;20476;-80
2022/10/22 00:55:11;;;;;;;9.70;8.73;;;16.20;99.90;;;;;;5016421;28;20496;-81
2022/10/22 00:57:38;;;;;;;9.27;8.37;;;16.20;99.90;;;;;;5018990;28;20493;-81
2022/10/22 01:00:07;;;;;;;10.57;8.20;;;16.20;99.90;;;;;;5016027;28;20823;-81
2022/10/22 01:02:34;;;;;;;10.10;9.10;;;16.10;99.90;;;;;;5018856;28;20503;-80
2022/10/22 01:05:04;;;;;;;10.97;8.73;;;16.10;99.90;;;;;;5016453;28;20822;-80
2022/10/22 01:07:38;;;;;;;9.60;8.70;;;16.10;99.90;;;;;;5016920;28;20518;-77
2022/10/22 01:10:11;;;;;;;12.63;11.40;;;16.10;99.90;;;;;;5015070;28;20463;-77
2022/10/22 01:12:54;;;;;;;13.77;12.40;;;16.10;99.90;;;;;;5014782;28;20485;-77
2022/10/22 01:15:29;;;;;;;14.17;10.67;;;16.10;99.90;;;;;;5003142;28;20476;-80
2022/10/22 01:18:01;;;;;;;10.27;9.20;;;16.10;99.90;;;;;;5017475;28;20459;-77
2022/10/22 01:20:47;;;;;;;11.70;10.50;;;16.10;99.90;;;;;;5014314;28;20861;-77
2022/10/22 01:23:32;;;;;;;16.30;14.60;;;16.10;99.90;;;;;;5014221;28;20468;-77
2022/10/22 01:26:06;;;;;;;14.17;12.70;;;16.10;99.90;;;;;;5013790;28;20469;-77
2022/10/22 01:28:56;;;;;;;13.30;12.00;;;16.10;99.90;;;;;;5013455;28;20492;-77
2022/10/22 01:31:25;;;;;;;10.93;9.83;;;16.00;99.90;;;;;;5013540;28;20465;-80
2022/10/22 01:33:54;;;;;;;10.20;9.20;;;16.10;99.90;;;;;;5014708;28;20483;-77
2022/10/22 01:36:23;;;;;;;13.00;11.70;;;16.10;99.90;;;;;;5004003;28;20515;-77
2022/10/22 01:38:51;;;;;;;14.60;12.30;;;16.10;99.90;;;;;;5008500;28;20470;-80
2022/10/22 01:41:21;;;;;;;13.10;11.80;;;16.00;99.90;;;;;;5010342;28;20967;-80
2022/10/22 01:43:50;;;;;;;14.80;11.67;;;16.00;99.90;;;;;;5013827;28;20473;-80
2022/10/22 01:46:21;;;;;;;11.93;10.73;;;16.00;99.90;;;;;;5013682;28;20481;-77
2022/10/22 01:49:02;;;;;;;11.47;10.37;;;16.10;99.90;;;;;;5013737;28;20472;-77
2022/10/22 01:51:44;;;;;;;9.57;8.67;;;16.10;99.90;;;;;;5013155;28;20809;-77
2022/10/22 01:54:21;;;;;;;10.17;9.27;;;16.10;99.90;;;;;;5013759;28;20469;-77
2022/10/22 01:56:58;;;;;;;9.17;8.37;;;16.10;99.90;;;;;;5021000;28;20537;-80
2022/10/22 01:59:39;;;;;;;11.70;9.80;;;16.10;99.90;;;;;;5015893;28;20791;-81
2022/10/22 02:02:13;;;;;;;10.07;8.97;;;16.10;99.90;;;;;;5011668;28;20512;-80
2022/10/22 02:04:49;;;;;;;9.43;8.50;;;16.00;99.90;;;;;;5013315;28;20950;-80
2022/10/22 02:07:20;;;;;;;9.80;8.80;;;16.00;99.90;;;;;;5014013;28;20500;-81
2022/10/22 02:09:51;;;;;;;9.93;9.07;;;16.00;99.90;;;;;;5013139;28;20504;-78
2022/10/22 02:12:22;;;;;;;12.93;11.50;;;16.00;99.90;;;;;;5013483;28;20548;-78
2022/10/22 02:14:51;;;;;;;12.63;11.43;;;16.00;99.90;;;;;;5013265;28;20557;-81
2022/10/22 02:17:21;;;;;;;12.30;11.10;;;16.00;99.90;;;;;;5013617;28;20957;-78
2022/10/22 02:19:56;;;;;;;12.93;11.43;;;16.00;99.90;;;;;;5005929;28;20500;-80
2022/10/22 02:22:24;;;;;;;12.90;10.83;;;16.00;99.90;;;;;;5013071;28;20476;-78
2022/10/22 02:24:51;;;;;;;10.17;9.27;;;16.00;99.90;;;;;;5012779;28;20449;-78
2022/10/22 02:27:23;;;;;;;9.40;8.50;;;16.00;99.90;;;;;;5013250;28;20524;-81
2022/10/22 02:29:58;;;;;;;11.17;10.07;;;16.00;99.90;;;;;;5012644;28;20465;-77
2022/10/22 02:32:36;;;;;;;11.97;10.77;;;16.00;99.90;;;;;;5010742;28;20473;-78
2022/10/22 02:35:06;;;;;;;12.93;11.73;;;16.00;99.90;;;;;;5012624;28;20950;-78
2022/10/22 02:37:34;;;;;;;12.03;10.80;;;16.00;99.90;;;;;;5012445;28;20483;-80
2022/10/22 02:40:01;;;;;;;11.23;9.67;;;16.00;99.90;;;;;;5011424;28;20512;-78
2022/10/22 02:42:28;;;;;;;10.37;9.47;;;16.00;99.90;;;;;;5012640;28;20871;-78
2022/10/22 02:44:57;;;;;;;12.20;11.10;;;16.00;99.90;;;;;;5009656;28;20508;-81
2022/10/22 02:47:25;;;;;;;14.07;12.63;;;16.00;99.90;;;;;;5011066;28;20503;-77
2022/10/22 02:49:52;;;;;;;13.33;12.07;;;16.00;99.90;;;;;;5010206;28;20847;-80
2022/10/22 02:52:19;;;;;;;12.77;11.47;;;16.00;99.90;;;;;;5001556;28;20548;-80
2022/10/22 02:55:13;;;;;;;10.90;9.80;;;16.00;99.90;;;;;;5009842;28;20476;-81
2022/10/22 02:57:40;;;;;;;10.37;9.40;;;16.00;99.90;;;;;;4964386;28;20877;-80
2022/10/22 03:00:11;;;;;;;9.57;8.70;;;16.00;99.90;;;;;;5010601;28;20465;-80
2022/10/22 03:02:38;;;;;;;13.70;12.43;;;16.10;99.90;;;;;;5012606;28;20465;-81
2022/10/22 03:05:07;;;;;;;12.50;11.20;;;16.10;99.90;;;;;;5012646;28;21320;-81
2022/10/22 03:07:34;;;;;;;12.23;10.93;;;16.10;99.90;;;;;;5000001;28;20866;-80
2022/10/22 03:10:01;;;;;;;11.70;10.60;;;16.10;99.90;;;;;;5009686;28;20564;-80
2022/10/22 03:12:29;;;;;;;10.97;9.87;;;16.10;99.90;;;;;;5011346;28;20473;-81
2022/10/22 03:14:56;;;;;;;9.77;8.93;;;16.10;99.90;;;;;;5011260;28;20465;-80
2022/10/22 03:17:24;;;;;;;9.70;8.70;;;16.10;99.90;;;;;;5011127;28;20545;-80
2022/10/22 03:19:51;;;;;;;11.37;10.27;;;16.10;99.90;;;;;;5012313;28;20894;-80
2022/10/22 03:22:23;;;;;;;9.17;8.30;;;16.10;99.90;;;;;;5008013;28;20481;-78
2022/10/22 03:24:59;;;;;;;11.37;10.17;;;16.10;99.90;;;;;;5013575;28;20556;-81
2022/10/22 03:27:29;;;;;;;9.80;8.90;;;16.10;99.90;;;;;;5012989;28;20480;-81
2022/10/22 03:29:58;;;;;;;8.83;7.93;;;16.10;99.90;;;;;;5012844;28;20493;-78
2022/10/22 03:32:26;;;;;;;9.07;8.20;;;16.10;99.90;;;;;;5012304;28;20934;-80
2022/10/22 03:34:53;;;;;;;8.20;7.47;;;16.10;99.90;;;;;;5012836;28;20469;-80
2022/10/22 03:37:21;;;;;;;10.97;9.97;;;16.10;99.90;;;;;;5012354;28;20466;-78
2022/10/22 03:39:48;;;;;;;10.00;8.90;;;16.10;99.90;;;;;;5012860;28;20496;-77
2022/10/22 03:42:16;;;;;;;9.30;8.50;;;16.10;99.90;;;;;;5012094;28;20508;-78
2022/10/22 03:44:43;;;;;;;9.73;8.83;;;16.10;99.90;;;;;;5012392;28;20548;-77
2022/10/22 03:47:11;;;;;;;10.43;9.43;;;16.10;99.90;;;;;;5011424;28;20484;-77
2022/10/22 03:49:39;;;;;;;9.27;8.47;;;16.10;99.90;;;;;;5012838;28;20488;-77
2022/10/22 03:52:07;;;;;;;9.20;8.30;;;16.10;99.90;;;;;;5009743;28;20477;-80
2022/10/22 03:54:36;;;;;;;10.70;9.70;;;16.10;99.90;;;;;;5013204;28;20472;-77
2022/10/22 03:57:03;;;;;;;10.27;9.30;;;16.10;99.90;;;;;;5012533;28;20531;-78
2022/10/22 03:59:34;;;;;;;10.70;9.70;;;16.10;99.90;;;;;;5011910;28;20775;-80
2022/10/22 04:02:09;;;;;;;9.00;8.20;;;16.10;99.90;;;;;;5012785;28;20564;-77
2022/10/22 04:04:36;;;;;;;12.93;11.67;;;16.10;99.90;;;;;;5012747;28;20948;-81
2022/10/22 04:07:04;;;;;;;9.13;8.23;;;16.10;99.90;;;;;;5012483;28;20978;-81
2022/10/22 04:09:35;;;;;;;10.10;9.13;;;16.10;99.90;;;;;;5016333;28;20501;-78
2022/10/22 04:12:04;;;;;;;11.20;10.00;;;16.10;99.90;;;;;;5016832;28;20473;-78
2022/10/22 04:14:31;;;;;;;10.73;9.83;;;16.10;99.90;;;;;;5016626;28;20801;-81
2022/10/22 04:16:58;;;;;;;10.10;9.07;;;16.10;99.90;;;;;;5018699;28;20502;-80
2022/10/22 04:19:25;;;;;;;9.73;8.77;;;16.00;99.90;;;;;;5018644;28;20488;-79
2022/10/22 04:21:52;;;;;;;9.70;8.70;;;16.10;99.90;;;;;;5016650;28;20818;-80
2022/10/22 04:24:20;;;;;;;9.30;8.37;;;16.10;99.90;;;;;;5017047;28;20539;-78
2022/10/22 04:26:51;;;;;;;9.57;8.67;;;16.10;99.90;;;;;;5016152;28;20983;-77
2022/10/22 04:29:19;;;;;;;10.77;9.60;;;16.00;99.90;;;;;;5016090;28;20468;-78
2022/10/22 04:31:46;;;;;;;11.50;10.30;;;16.00;99.90;;;;;;5017971;28;20481;-80
2022/10/22 04:34:13;;;;;;;10.63;9.57;;;16.00;99.90;;;;;;5017176;28;20943;-80
2022/10/22 04:36:40;;;;;;;14.03;11.17;;;16.00;99.90;;;;;;5016483;28;20449;-78
2022/10/22 04:39:07;;;;;;;12.17;10.93;;;16.00;99.90;;;;;;5016346;28;20479;-78
2022/10/22 04:41:38;;;;;;;12.43;10.70;;;16.00;99.90;;;;;;5015388;28;20469;-78
2022/10/22 04:44:06;;;;;;;13.17;11.77;;;16.00;99.90;;;;;;5016347;28;20607;-77
2022/10/22 04:46:35;;;;;;;9.40;8.50;;;16.00;99.90;;;;;;5015845;28;20461;-78
2022/10/22 04:49:03;;;;;;;12.43;11.27;;;16.00;99.90;;;;;;5015184;28;20526;-81
2022/10/22 04:51:31;;;;;;;9.67;8.77;;;16.00;99.90;;;;;;5015609;28;20982;-78
2022/10/22 04:53:58;;;;;;;8.97;8.07;;;16.00;99.90;;;;;;5016205;28;20835;-78
2022/10/22 04:56:27;;;;;;;9.53;8.63;;;16.00;99.90;;;;;;5015122;28;20476;-81
2022/10/22 04:59:01;;;;;;;8.93;8.10;;;16.00;99.90;;;;;;5015465;28;20489;-81
2022/10/22 05:01:29;;;;;;;8.67;7.77;;;16.00;99.90;;;;;;5014865;28;20483;-78
2022/10/22 05:03:59;;;;;;;11.80;8.30;;;16.00;99.90;;;;;;5015993;28;20473;-81
2022/10/22 05:06:29;;;;;;;10.20;9.30;;;16.00;99.90;;;;;;5005075;28;20547;-78
2022/10/22 05:08:59;;;;;;;10.20;8.73;;;16.00;99.90;;;;;;5014846;28;20465;-81
2022/10/22 05:11:29;;;;;;;10.17;9.17;;;16.00;99.90;;;;;;5014601;28;20516;-78
2022/10/22 05:14:01;;;;;;;9.00;8.20;;;16.00;99.90;;;;;;5015519;28;20499;-78
2022/10/22 05:16:29;;;;;;;8.83;7.97;;;16.00;99.90;;;;;;5015368;28;20564;-81
2022/10/22 05:18:58;;;;;;;9.47;8.60;;;16.00;99.90;;;;;;5015681;28;20537;-77
2022/10/22 05:21:26;;;;;;;11.50;9.03;;;16.00;99.90;;;;;;5014491;28;20846;-78
2022/10/22 05:23:55;;;;;;;9.57;8.73;;;16.00;99.90;;;;;;5015541;28;20549;-78
2022/10/22 05:26:23;;;;;;;9.90;8.90;;;16.00;99.90;;;;;;5015669;28;20465;-78
2022/10/22 05:28:51;;;;;;;9.03;8.23;;;15.90;99.90;;;;;;5014833;28;20457;-78
2022/10/22 05:31:20;;;;;;;10.60;9.57;;;15.90;99.90;;;;;;5015133;28;20564;-81
2022/10/22 05:33:47;;;;;;;10.43;9.40;;;15.90;99.90;;;;;;5015113;28;20465;-78
2022/10/22 05:36:18;;;;;;;11.37;10.27;;;15.90;99.90;;;;;;5015219;28;20890;-78
2022/10/22 05:38:46;;;;;;;10.17;9.17;;;15.90;99.90;;;;;;5012670;28;20538;-80
2022/10/22 05:41:14;;;;;;;10.87;9.40;;;15.90;99.90;;;;;;5006499;28;20508;-82
2022/10/22 05:43:41;;;;;;;9.53;8.57;;;15.90;99.90;;;;;;5014535;28;21026;-77
2022/10/22 05:46:11;;;;;;;10.17;9.07;;;15.90;99.90;;;;;;5005819;28;20469;-80
2022/10/22 05:48:39;;;;;;;9.53;8.63;;;15.90;99.90;;;;;;5014176;28;20794;-77
2022/10/22 05:51:11;;;;;;;10.10;9.07;;;15.90;99.90;;;;;;5015308;28;20853;-81
2022/10/22 05:53:40;;;;;;;9.23;8.33;;;15.80;99.90;;;;;;5005492;28;20814;-77
2022/10/22 05:56:13;;;;;;;9.90;8.97;;;15.80;99.90;;;;;;5013567;28;20461;-81
2022/10/22 05:58:41;;;;;;;10.13;9.13;;;15.80;99.90;;;;;;5014589;28;20509;-81
2022/10/22 06:01:13;;;;;;;11.10;10.10;;;15.80;99.90;;;;;;5013949;28;20540;-81
2022/10/22 06:03:42;;;;;;;11.17;9.97;;;15.80;99.90;;;;;;5014249;28;20500;-77
2022/10/22 06:06:19;;;;;;;11.40;10.23;;;15.80;99.90;;;;;;5013818;28;20846;-77
2022/10/22 06:08:48;;;;;;;11.07;10.00;;;15.90;99.90;;;;;;5013668;28;20465;-78
2022/10/22 06:11:16;;;;;;;10.10;9.10;;;15.80;99.90;;;;;;5014195;28;20535;-77
2022/10/22 06:13:43;;;;;;;9.13;8.17;;;15.80;99.90;;;;;;5013966;28;20480;-77
2022/10/22 06:16:10;;;;;;;11.03;9.93;;;15.80;99.90;;;;;;5014085;28;20824;-77
2022/10/22 06:18:38;;;;;;;10.37;9.27;;;15.80;99.90;;;;;;5014314;28;20473;-77
2022/10/22 06:21:08;;;;;;;10.80;9.70;;;15.80;99.90;;;;;;5013340;28;20500;-77
2022/10/22 06:23:37;;;;;;;10.40;9.40;;;15.70;99.90;;;;;;5014189;28;20504;-77
2022/10/22 06:26:06;;;;;;;10.60;9.50;;;15.70;99.90;;;;;;5012712;28;20576;-80
2022/10/22 06:28:33;;;;;;;9.37;8.47;;;15.70;99.90;;;;;;5013956;28;20473;-81
2022/10/22 06:31:01;;;;;;;11.67;9.60;;;15.70;99.90;;;;;;5012551;28;20473;-80
2022/10/22 06:33:29;;;;;;;11.30;10.30;;;15.70;99.90;;;;;;5013190;28;20483;-77
2022/10/22 06:36:06;;;;;;;10.20;9.27;;;15.80;99.90;;;;;;5013447;28;20608;-80
2022/10/22 06:38:34;;;;;;;10.60;9.60;;;15.80;99.90;;;;;;5013802;28;20469;-80
2022/10/22 06:41:04;;;;;;;11.00;10.00;;;15.80;99.90;;;;;;5013613;28;20551;-77
2022/10/22 06:43:33;;;;;;;10.10;9.10;;;15.80;99.90;;;;;;5013799;28;20511;-81
2022/10/22 06:46:01;;;;;;;12.50;11.20;;;15.80;99.90;;;;;;5013416;28;21046;-80
2022/10/22 06:48:28;;;;;;;8.83;8.03;;;15.80;99.90;;;;;;5013817;28;20468;-77
2022/10/22 06:51:01;;;;;;;10.77;9.83;;;15.80;99.90;;;;;;5012451;28;20864;-77
2022/10/22 06:53:30;;;;;;;10.30;9.13;;;15.90;99.90;;;;;;5013614;28;20958;-81
2022/10/22 06:56:00;;;;;;;10.67;9.63;;;15.90;99.90;;;;;;5013416;28;20523;-80
2022/10/22 06:58:27;;;;;;;11.40;10.17;;;15.90;99.90;;;;;;5013912;28;20471;-81
2022/10/22 07:01:02;;;;;;;11.20;9.07;;;15.90;99.90;;;;;;5012950;28;20465;-78
2022/10/22 07:03:29;;;;;;;11.50;10.30;;;16.00;99.90;;;;;;5012791;28;20960;-77
2022/10/22 07:05:59;;;;;;;10.23;9.13;;;16.00;99.90;;;;;;5012975;28;20552;-77
2022/10/22 07:08:26;;;;;;;9.90;8.73;;;16.00;99.90;;;;;;5013290;28;20529;-77
2022/10/22 07:10:55;;;;;;;10.83;9.80;;;16.00;99.90;;;;;;5013179;28;20846;-80
2022/10/22 07:13:22;;;;;;;10.43;9.53;;;16.10;99.90;;;;;;5013322;28;20472;-81
2022/10/22 07:15:52;;;;;;;11.13;10.03;;;16.10;99.90;;;;;;5013083;28;20534;-81
2022/10/22 07:18:22;;;;;;;9.30;8.40;;;16.10;99.90;;;;;;5013284;28;20480;-80
2022/10/22 07:20:49;;;;;;;10.27;9.37;;;16.10;99.90;;;;;;5013465;28;20469;-77
2022/10/22 07:23:17;;;;;;;11.10;9.67;;;16.10;99.90;;;;;;5012813;28;20656;-78
2022/10/22 07:25:44;;;;;;;10.60;9.63;;;16.10;99.90;;;;;;5013383;28;20981;-81
2022/10/22 07:28:13;;;;;;;10.40;9.40;;;16.20;99.90;;;;;;5011228;28;20465;-78
2022/10/22 07:30:42;;;;;;;11.70;10.50;;;16.20;99.90;;;;;;5010360;28;20514;-78
2022/10/22 07:33:12;;;;;;;10.63;9.40;;;16.20;99.90;;;;;;5002026;28;20473;-81
2022/10/22 07:35:40;;;;;;;8.80;8.00;;;16.20;99.90;;;;;;5005263;28;20505;-81
2022/10/22 07:38:08;;;;;;;11.27;10.20;;;16.20;99.90;;;;;;5005305;28;20469;-78
2022/10/22 07:40:36;;;;;;;10.80;9.73;;;16.30;99.90;;;;;;5003362;28;20997;-78
2022/10/22 07:43:03;;;;;;;13.07;11.77;;;16.30;99.90;;;;;;4998287;28;20565;-79
2022/10/22 07:45:32;;;;;;;12.60;11.37;;;16.30;99.90;;;;;;5011955;28;20492;-78
2022/10/22 07:47:59;;;;;;;11.23;10.07;;;16.30;99.90;;;;;;5008821;28;20551;-78
2022/10/22 07:50:27;;;;;;;11.37;10.17;;;16.40;99.90;;;;;;5011934;28;20733;-78
2022/10/22 07:52:54;;;;;;;10.20;9.30;;;16.40;99.90;;;;;;5011859;28;20477;-78
2022/10/22 07:55:21;;;;;;;9.83;9.03;;;16.40;99.90;;;;;;5012327;28;20457;-81
2022/10/22 07:57:48;;;;;;;10.70;9.70;;;16.50;99.90;;;;;;5012233;28;20488;-81
2022/10/22 08:00:17;;;;;;;10.00;8.97;;;16.50;99.90;;;;;;5011967;28;20539;-81
2022/10/22 08:02:46;;;;;;;10.20;9.20;;;16.50;99.90;;;;;;5012344;28;20556;-78
2022/10/22 08:05:13;;;;;;;11.83;10.40;;;16.50;99.90;;;;;;5012686;28;20834;-81
2022/10/22 08:07:41;;;;;;;14.20;12.20;;;16.60;99.90;;;;;;5011892;28;20564;-78
2022/10/22 08:10:12;;;;;;;11.33;9.93;;;16.50;99.90;;;;;;5012341;28;20532;-81
2022/10/22 08:12:40;;;;;;;11.23;10.13;;;16.60;99.90;;;;;;5012026;28;20559;-78
2022/10/22 08:15:09;;;;;;;12.00;10.03;;;16.60;99.90;;;;;;5011844;28;20477;-79
2022/10/22 08:17:37;;;;;;;15.50;13.90;;;16.60;99.90;;;;;;5012638;28;20839;-77
2022/10/22 08:20:06;;;;;;;13.20;11.90;;;16.60;99.90;;;;;;5012067;28;20823;-78
2022/10/22 08:22:33;;;;;;;13.73;12.37;;;16.60;99.90;;;;;;5012413;28;20535;-77
2022/10/22 08:25:01;;;;;;;9.97;9.07;;;16.60;99.90;;;;;;5011384;28;20565;-80
2022/10/22 08:27:28;;;;;;;11.67;10.57;;;16.70;99.90;;;;;;5013151;28;20575;-81
2022/10/22 08:29:55;;;;;;;14.13;12.63;;;16.70;99.90;;;;;;5011926;28;20475;-81
2022/10/22 08:32:25;;;;;;;12.60;11.50;;;16.70;99.90;;;;;;5011551;28;20473;-82
2022/10/22 08:34:52;;;;;;;13.53;11.83;;;16.70;99.90;;;;;;5012113;28;20797;-81
2022/10/22 08:37:20;;;;;;;12.33;11.03;;;16.70;99.90;;;;;;5012576;28;20465;-81
2022/10/22 08:39:55;;;;;;;11.20;10.10;;;16.70;99.90;;;;;;5012799;28;20556;-81
2022/10/22 08:42:50;;;;;;;10.63;9.63;;;16.70;99.90;;;;;;5011273;28;21020;-81
2022/10/22 08:45:24;;;;;;;11.70;10.60;;;16.80;99.90;;;;;;5012657;28;20465;-81
2022/10/22 08:48:10;;;;;;;12.20;9.40;;;16.80;99.90;;;;;;5012254;28;20970;-78
2022/10/22 08:50:42;;;;;;;9.20;8.30;;;16.80;99.90;;;;;;5013558;28;20553;-82
2022/10/22 08:53:15;;;;;;;9.73;8.83;;;16.80;99.90;;;;;;5012656;28;20467;-78
2022/10/22 08:55:43;;;;;;;10.20;9.10;;;16.80;99.90;;;;;;5004783;28;20500;-81
2022/10/22 08:58:19;;;;;;;11.07;9.97;;;16.80;99.90;;;;;;5013564;28;20797;-78
2022/10/22 09:00:54;;;;;;;9.93;8.93;;;16.80;99.90;;;;;;5016035;28;20473;-78
2022/10/22 09:03:36;;;;;;;9.23;8.43;;;16.80;99.90;;;;;;5015274;28;20477;-82
2022/10/22 09:06:11;;;;;;;11.53;10.43;;;16.90;99.90;;;;;;5015230;28;21015;-81
2022/10/22 09:08:42;;;;;;;10.30;9.30;;;16.90;99.90;;;;;;5016034;28;20483;-78
2022/10/22 09:11:19;;;;;;;10.00;9.00;;;16.90;99.90;;;;;;5017077;28;20475;-81
2022/10/22 09:13:48;;;;;;;11.20;10.10;;;16.90;99.90;;;;;;5015611;28;20551;-78
2022/10/22 09:16:18;;;;;;;10.93;9.80;;;16.90;99.90;;;;;;5015413;28;20466;-78
2022/10/22 09:19:03;;;;;;;13.10;11.83;;;17.00;99.90;;;;;;5006681;28;20466;-81
2022/10/22 09:21:38;;;;;;;10.90;9.63;;;17.00;99.90;;;;;;5014849;28;20458;-82
2022/10/22 09:24:13;;;;;;;11.73;10.40;;;17.00;99.90;;;;;;5015674;28;20477;-82
2022/10/22 09:26:41;;;;;;;13.63;12.00;;;17.00;99.90;;;;;;5014844;28;20473;-81
2022/10/22 09:29:16;;;;;;;9.33;8.43;;;17.10;99.90;;;;;;5015187;28;20815;-81
2022/10/22 09:31:43;;;;;;;11.20;10.13;;;17.10;99.90;;;;;;5014050;28;20888;-78
2022/10/22 09:34:10;;;;;;;10.63;9.63;;;17.10;99.90;;;;;;5015032;28;20546;-78
2022/10/22 09:36:38;;;;;;;11.90;10.70;;;17.10;99.90;;;;;;5004750;28;20538;-78
2022/10/22 09:39:20;;;;;;;10.30;9.40;;;17.10;99.90;;;;;;5014468;28;20980;-78
2022/10/22 09:41:53;;;;;;;11.80;10.70;;;17.10;99.90;;;;;;5014822;28;20471;-79
2022/10/22 09:44:21;;;;;;;11.40;10.10;;;17.20;99.90;;;;;;5008242;28;20467;-81
2022/10/22 09:46:48;;;;;;;12.07;10.87;;;17.20;99.90;;;;;;5018523;28;20478;-82
2022/10/22 09:49:17;;;;;;;10.93;9.93;;;17.20;99.90;;;;;;5020952;28;20548;-81
2022/10/22 09:51:52;;;;;;;12.70;11.37;;;17.30;99.90;;;;;;5020852;28;20474;-81
2022/10/22 09:54:57;;;;;;;14.80;12.63;;;17.30;99.90;;;;;;5024267;28;20482;-82
2022/10/22 09:57:30;;;;;;;14.73;13.23;;;17.40;99.90;;;;;;5004567;28;20454;-81
2022/10/22 10:00:04;;;;;;;11.37;10.27;;;17.40;99.90;;;;;;5016063;28;20457;-82
2022/10/22 10:02:33;;;;;;;9.80;8.93;;;17.40;99.90;;;;;;5013732;28;20474;-81
2022/10/22 10:05:04;;;;;;;11.03;10.03;;;17.40;99.90;;;;;;5005243;28;20543;-78
2022/10/22 10:07:37;;;;;;;9.30;8.40;;;17.50;99.90;;;;;;4993966;28;20947;-81
2022/10/22 10:10:20;;;;;;;10.20;9.20;;;17.40;99.90;;;;;;5012080;28;20915;-81
2022/10/22 10:15:43;;;;;;;10.83;9.93;;;17.50;99.90;;;;;;4998615;28;20472;-77
2022/10/22 10:18:20;;;;;;;10.77;9.77;;;17.50;99.90;;;;;;4998317;28;20784;-77
2022/10/22 10:20:54;;;;;;;12.93;11.63;;;17.50;99.90;;;;;;4997562;28;20467;-78
2022/10/22 10:23:30;;;;;;;12.10;10.93;;;17.50;99.90;;;;;;4998258;28;21040;-82
2022/10/22 10:26:06;;;;;;;14.10;12.70;;;17.50;99.90;;;;;;5004764;28;20530;-82
2022/10/22 10:28:46;;;;;;;12.47;11.27;;;17.50;99.90;;;;;;5014623;28;20499;-82
2022/10/22 10:31:24;;;;;;;11.50;10.40;;;17.50;99.90;;;;;;5014741;28;20587;-82
2022/10/22 10:34:00;;;;;;;11.30;10.20;;;17.60;99.90;;;;;;5014884;28;20551;-82
2022/10/22 10:36:39;;;;;;;11.87;10.57;;;17.60;99.90;;;;;;5013810;28;20543;-81
2022/10/22 10:39:14;;;;;;;11.40;10.20;;;17.60;99.90;;;;;;5013316;28;20563;-78
2022/10/22 10:41:51;;;;;;;12.23;10.67;;;17.60;99.90;;;;;;5013088;28;20543;-81
2022/10/22 10:44:37;;;;;;;11.07;9.90;;;17.60;99.90;;;;;;5013764;28;20533;-82
2022/10/22 10:47:18;;;;;;;12.27;11.07;;;17.70;99.90;;;;;;5014498;28;20472;-82
2022/10/22 10:49:47;;;;;;;11.27;10.03;;;17.70;99.90;;;;;;5015366;28;20571;-81
2022/10/22 10:52:20;;;;;;;12.57;11.33;;;17.70;99.90;;;;;;5015125;28;20559;-82
2022/10/22 10:54:54;;;;;;;11.83;10.73;;;17.70;99.90;;;;;;5013601;28;20473;-78
2022/10/22 10:57:31;;;;;;;9.50;8.57;;;17.70;99.90;;;;;;5013927;28;20467;-78
2022/10/22 11:00:07;;;;;;;10.93;9.90;;;17.70;99.90;;;;;;5013246;28;20473;-81
2022/10/22 11:02:58;;;;;;;11.53;10.47;;;17.80;99.90;;;;;;5007459;28;20555;-78
2022/10/22 11:05:34;;;;;;;14.23;12.73;;;17.80;99.90;;;;;;5019715;28;20466;-78
2022/10/22 11:08:04;;;;;;;16.67;12.70;;;17.90;99.90;;;;;;5014085;28;20503;-77
2022/10/22 11:10:39;;;;;;;15.30;13.27;;;17.90;99.90;;;;;;5013372;28;20786;-81
2022/10/22 11:13:13;;;;;;;15.13;12.77;;;17.90;99.90;;;;;;5012809;28;20558;-81
2022/10/22 11:15:45;;;;;;;15.17;13.63;;;18.00;99.90;;;;;;5013316;28;20498;-81
2022/10/22 11:18:20;;;;;;;14.70;13.30;;;18.00;99.90;;;;;;5013491;28;20561;-77
2022/10/22 11:20:55;;;;;;;15.63;13.63;;;18.00;99.90;;;;;;5013130;28;20518;-77
2022/10/22 11:26:38;;;;;;;15.63;14.03;;;18.10;99.90;;;;;;4955446;28;20840;-78
2022/10/22 11:29:17;;;;;;;16.97;14.27;;;18.10;99.90;;;;;;5007027;28;20471;-78
2022/10/22 11:31:47;;;;;;;15.00;13.60;;;18.10;99.90;;;;;;5013233;28;20848;-78
2022/10/22 11:34:18;;;;;;;14.23;12.87;;;18.10;99.90;;;;;;5001341;28;20469;-78
2022/10/22 11:36:47;;;;;;;15.00;13.50;;;18.10;99.90;;;;;;4993444;28;20559;-78
2022/10/22 11:39:34;;;;;;;13.97;12.13;;;18.10;99.90;;;;;;4993191;28;20581;-77
2022/10/22 11:42:04;;;;;;;15.00;13.50;;;18.10;99.90;;;;;;4992365;28;20505;-78
2022/10/22 11:44:32;;;;;;;14.70;13.30;;;18.10;99.90;;;;;;4992942;28;20480;-77
2022/10/22 11:47:17;;;;;;;14.10;12.80;;;18.10;99.90;;;;;;4992288;28;20488;-77
2022/10/22 11:49:54;;;;;;;14.00;12.50;;;18.10;99.90;;;;;;4993609;28;20859;-77
2022/10/22 11:52:37;;;;;;;14.10;12.70;;;18.10;99.90;;;;;;5012209;28;20577;-77
2022/10/22 11:55:27;;;;;;;15.47;13.97;;;18.10;99.90;;;;;;5003052;28;20475;-77
2022/10/22 11:57:59;;;;;;;14.20;12.93;;;18.10;99.90;;;;;;5012519;28;20538;-82
2022/10/22 12:00:35;;;;;;;15.53;13.97;;;18.10;99.90;;;;;;5011915;28;20586;-80
2022/10/22 12:03:17;;;;;;;15.20;13.80;;;18.10;99.90;;;;;;5012494;28;20495;-82
2022/10/22 12:05:49;;;;;;;15.57;14.10;;;18.10;99.90;;;;;;5012558;28;20476;-79
2022/10/22 12:08:27;;;;;;;16.53;14.87;;;18.10;99.90;;;;;;5011807;28;20864;-77
2022/10/22 12:11:12;;;;;;;17.17;15.47;;;18.10;99.90;;;;;;5011590;28;20563;-77
2022/10/22 12:14:13;;;;;;;16.73;15.00;;;18.10;99.90;;;;;;5013028;28;20549;-80
2022/10/22 12:16:44;;;;;;;16.30;14.67;;;18.20;99.90;;;;;;5006296;28;20481;-78
2022/10/22 12:19:16;;;;;;;14.97;13.57;;;18.20;99.90;;;;;;5012453;28;20903;-77
2022/10/22 12:21:48;;;;;;;13.27;11.97;;;18.20;99.90;;;;;;5012169;28;20484;-77
2022/10/22 12:24:19;;;;;;;12.53;11.53;;;18.20;99.90;;;;;;5013186;28;20567;-81
2022/10/22 12:26:48;;;;;;;14.90;13.40;;;18.20;99.90;;;;;;5012150;28;22169;-81
2022/10/22 12:29:17;;;;;;;11.93;10.73;;;18.20;99.90;;;;;;5012792;28;20556;-78
2022/10/22 12:31:45;;;;;;;14.10;12.70;;;18.20;99.90;;;;;;5020393;28;20854;-78
2022/10/22 12:34:23;;;;;;;14.80;13.30;;;18.20;99.90;;;;;;5024021;28;20560;-82
2022/10/22 12:36:52;;;;;;;14.80;13.37;;;18.20;99.90;;;;;;5027317;28;20915;-78
2022/10/22 12:39:22;;;;;;;16.17;13.70;;;18.20;99.90;;;;;;5028680;28;20547;-81
2022/10/22 12:41:52;;;;;;;16.67;14.00;;;18.20;99.90;;;;;;5028745;28;20474;-78
2022/10/22 12:44:22;;;;;;;13.33;11.97;;;18.20;99.90;;;;;;5029726;28;20473;-77
2022/10/22 12:46:54;;;;;;;13.00;11.80;;;18.30;99.90;;;;;;5023127;28;20519;-78
2022/10/22 12:49:28;;;;;;;13.00;11.67;;;18.30;99.90;;;;;;5018063;28;20550;-78
2022/10/22 12:51:55;;;;;;;12.70;11.50;;;18.30;99.90;;;;;;5015357;28;20483;-78
2022/10/22 12:54:26;;;;;;;10.33;9.30;;;18.30;99.90;;;;;;5016888;28;20494;-81
2022/10/22 12:56:55;;;;;;;9.13;8.27;;;18.30;99.90;;;;;;5017424;28;20461;-81
2022/10/22 12:59:25;;;;;;;8.50;7.80;;;18.30;99.90;;;;;;5017740;28;20461;-82
2022/10/22 13:01:56;;;;;;;9.63;8.77;;;18.40;99.90;;;;;;5015799;28;20464;-78